sensor_id;sensor_type;location;lat;lon;timestamp;P1;durP1;ratioP1;P2;durP2;ratioP2
13122;SDS011;6627;50.920;12.050;2023-10-13T00:01:24;6.93;;;5.50;;
13122;SDS011;6627;50.920;12.050;2023-10-13T00:03:55;7.60;;;5.20;;
13122;SDS011;6627;50.920;12.050;2023-10-13T00:06:24;5.83;;;5.23;;
13122;SDS011;6627;50.920;12.050;2023-10-13T00:08:56;7.00;;;5.23;;
13122;SDS011;6627;50.920;12.050;2023-10-13T00:11:25;6.70;;;4.90;;
13122;SDS011;6627;50.920;12.050;2023-10-13T00:13:55;8.03;;;4.90;;
13122;SDS011;6627;50.920;12.050;2023-10-13T00:16:43;6.17;;;5.27;;
13122;SDS011;6627;50.920;12.050;2023-10-13T00:19:41;7.30;;;4.67;;
13122;SDS011;6627;50.920;12.050;2023-10-13T00:22:12;7.43;;;4.83;;
13122;SDS011;6627;50.920;12.050;2023-10-13T00:24:43;6.87;;;4.93;;
13122;SDS011;6627;50.920;12.050;2023-10-13T00:27:14;7.50;;;5.03;;
13122;SDS011;6627;50.920;12.050;2023-10-13T00:29:56;8.07;;;5.50;;
13122;SDS011;6627;50.920;12.050;2023-10-13T00:32:43;8.80;;;5.10;;
13122;SDS011;6627;50.920;12.050;2023-10-13T00:35:19;10.00;;;5.73;;
13122;SDS011;6627;50.920;12.050;2023-10-13T00:37:51;6.23;;;4.80;;
13122;SDS011;6627;50.920;12.050;2023-10-13T00:40:21;8.00;;;5.33;;
13122;SDS011;6627;50.920;12.050;2023-10-13T00:43:03;9.00;;;5.67;;
13122;SDS011;6627;50.920;12.050;2023-10-13T00:45:52;10.13;;;5.53;;
13122;SDS011;6627;50.920;12.050;2023-10-13T00:48:23;6.73;;;5.47;;
13122;SDS011;6627;50.920;12.050;2023-10-13T00:50:58;7.67;;;5.73;;
13122;SDS011;6627;50.920;12.050;2023-10-13T00:53:28;6.63;;;5.70;;
13122;SDS011;6627;50.920;12.050;2023-10-13T00:56:00;7.03;;;5.33;;
13122;SDS011;6627;50.920;12.050;2023-10-13T00:58:32;8.07;;;5.40;;
13122;SDS011;6627;50.920;12.050;2023-10-13T01:00:59;10.47;;;6.20;;
13122;SDS011;6627;50.920;12.050;2023-10-13T01:04:02;7.57;;;5.63;;
13122;SDS011;6627;50.920;12.050;2023-10-13T01:06:37;9.00;;;5.93;;
13122;SDS011;6627;50.920;12.050;2023-10-13T01:09:09;7.63;;;5.43;;
13122;SDS011;6627;50.920;12.050;2023-10-13T01:11:39;9.00;;;5.87;;
13122;SDS011;6627;50.920;12.050;2023-10-13T01:14:08;10.97;;;6.03;;
13122;SDS011;6627;50.920;12.050;2023-10-13T01:16:36;8.33;;;5.73;;
13122;SDS011;6627;50.920;12.050;2023-10-13T01:19:06;8.13;;;6.13;;
13122;SDS011;6627;50.920;12.050;2023-10-13T01:21:32;8.43;;;5.40;;
13122;SDS011;6627;50.920;12.050;2023-10-13T01:24:01;8.70;;;5.37;;
13122;SDS011;6627;50.920;12.050;2023-10-13T01:26:52;12.13;;;5.50;;
13122;SDS011;6627;50.920;12.050;2023-10-13T01:29:25;8.63;;;5.40;;
13122;SDS011;6627;50.920;12.050;2023-10-13T01:31:54;9.80;;;5.33;;
13122;SDS011;6627;50.920;12.050;2023-10-13T01:34:21;7.20;;;5.37;;
13122;SDS011;6627;50.920;12.050;2023-10-13T01:36:48;8.30;;;5.57;;
13122;SDS011;6627;50.920;12.050;2023-10-13T01:39:18;6.17;;;5.07;;
13122;SDS011;6627;50.920;12.050;2023-10-13T01:41:47;8.77;;;5.77;;
13122;SDS011;6627;50.920;12.050;2023-10-13T01:44:21;9.00;;;6.13;;
13122;SDS011;6627;50.920;12.050;2023-10-13T01:46:51;7.73;;;5.63;;
13122;SDS011;6627;50.920;12.050;2023-10-13T01:49:18;8.57;;;6.03;;
13122;SDS011;6627;50.920;12.050;2023-10-13T01:51:47;9.43;;;5.77;;
13122;SDS011;6627;50.920;12.050;2023-10-13T01:54:14;7.53;;;5.63;;
13122;SDS011;6627;50.920;12.050;2023-10-13T01:56:54;6.13;;;5.00;;
13122;SDS011;6627;50.920;12.050;2023-10-13T01:59:21;6.03;;;5.10;;
13122;SDS011;6627;50.920;12.050;2023-10-13T02:02:07;8.57;;;5.30;;
13122;SDS011;6627;50.920;12.050;2023-10-13T02:04:43;8.43;;;5.73;;
13122;SDS011;6627;50.920;12.050;2023-10-13T02:07:34;7.83;;;5.60;;
13122;SDS011;6627;50.920;12.050;2023-10-13T02:10:07;7.70;;;5.30;;
13122;SDS011;6627;50.920;12.050;2023-10-13T02:12:41;10.23;;;5.50;;
13122;SDS011;6627;50.920;12.050;2023-10-13T02:15:09;12.33;;;6.13;;
13122;SDS011;6627;50.920;12.050;2023-10-13T02:18:06;7.17;;;5.43;;
13122;SDS011;6627;50.920;12.050;2023-10-13T02:20:54;8.50;;;5.83;;
13122;SDS011;6627;50.920;12.050;2023-10-13T02:23:31;9.07;;;5.77;;
13122;SDS011;6627;50.920;12.050;2023-10-13T02:26:00;8.73;;;6.67;;
13122;SDS011;6627;50.920;12.050;2023-10-13T02:28:40;8.40;;;6.37;;
13122;SDS011;6627;50.920;12.050;2023-10-13T02:31:29;8.37;;;5.83;;
13122;SDS011;6627;50.920;12.050;2023-10-13T02:33:59;7.70;;;5.93;;
13122;SDS011;6627;50.920;12.050;2023-10-13T02:36:31;9.80;;;5.73;;
13122;SDS011;6627;50.920;12.050;2023-10-13T02:39:14;7.27;;;6.13;;
13122;SDS011;6627;50.920;12.050;2023-10-13T02:41:45;14.77;;;6.27;;
13122;SDS011;6627;50.920;12.050;2023-10-13T02:44:17;10.50;;;6.67;;
13122;SDS011;6627;50.920;12.050;2023-10-13T02:47:00;7.60;;;6.53;;
13122;SDS011;6627;50.920;12.050;2023-10-13T02:49:32;8.67;;;6.80;;
13122;SDS011;6627;50.920;12.050;2023-10-13T02:52:07;7.80;;;6.33;;
13122;SDS011;6627;50.920;12.050;2023-10-13T02:54:36;10.37;;;6.80;;
13122;SDS011;6627;50.920;12.050;2023-10-13T02:57:25;7.77;;;6.10;;
13122;SDS011;6627;50.920;12.050;2023-10-13T02:59:55;8.60;;;6.50;;
13122;SDS011;6627;50.920;12.050;2023-10-13T03:02:43;8.53;;;6.93;;
13122;SDS011;6627;50.920;12.050;2023-10-13T03:05:19;8.17;;;6.80;;
13122;SDS011;6627;50.920;12.050;2023-10-13T03:07:50;10.77;;;6.40;;
13122;SDS011;6627;50.920;12.050;2023-10-13T03:10:20;11.87;;;7.07;;
13122;SDS011;6627;50.920;12.050;2023-10-13T03:12:47;9.87;;;6.73;;
13122;SDS011;6627;50.920;12.050;2023-10-13T03:15:16;9.37;;;6.87;;
13122;SDS011;6627;50.920;12.050;2023-10-13T03:17:44;7.27;;;6.57;;
13122;SDS011;6627;50.920;12.050;2023-10-13T03:20:28;9.73;;;6.57;;
13122;SDS011;6627;50.920;12.050;2023-10-13T03:23:00;10.30;;;7.13;;
13122;SDS011;6627;50.920;12.050;2023-10-13T03:25:30;9.87;;;6.67;;
13122;SDS011;6627;50.920;12.050;2023-10-13T03:28:10;13.47;;;6.80;;
13122;SDS011;6627;50.920;12.050;2023-10-13T03:30:40;11.27;;;6.77;;
13122;SDS011;6627;50.920;12.050;2023-10-13T03:33:27;8.37;;;6.77;;
13122;SDS011;6627;50.920;12.050;2023-10-13T03:36:17;11.30;;;6.57;;
13122;SDS011;6627;50.920;12.050;2023-10-13T03:39:13;9.37;;;6.77;;
13122;SDS011;6627;50.920;12.050;2023-10-13T03:41:41;8.73;;;7.10;;
13122;SDS011;6627;50.920;12.050;2023-10-13T03:44:11;9.83;;;7.30;;
13122;SDS011;6627;50.920;12.050;2023-10-13T03:46:49;10.20;;;7.40;;
13122;SDS011;6627;50.920;12.050;2023-10-13T03:49:22;9.20;;;8.23;;
13122;SDS011;6627;50.920;12.050;2023-10-13T03:51:50;15.20;;;8.07;;
13122;SDS011;6627;50.920;12.050;2023-10-13T03:54:20;8.57;;;7.47;;
13122;SDS011;6627;50.920;12.050;2023-10-13T03:56:48;9.37;;;7.60;;
13122;SDS011;6627;50.920;12.050;2023-10-13T03:59:23;14.30;;;9.30;;
13122;SDS011;6627;50.920;12.050;2023-10-13T04:02:02;11.40;;;7.77;;
13122;SDS011;6627;50.920;12.050;2023-10-13T04:04:39;11.13;;;8.23;;
13122;SDS011;6627;50.920;12.050;2023-10-13T04:07:33;10.60;;;8.40;;
13122;SDS011;6627;50.920;12.050;2023-10-13T04:10:33;11.10;;;8.57;;
13122;SDS011;6627;50.920;12.050;2023-10-13T04:13:18;10.30;;;8.53;;
13122;SDS011;6627;50.920;12.050;2023-10-13T04:16:06;11.47;;;8.97;;
13122;SDS011;6627;50.920;12.050;2023-10-13T04:19:07;11.77;;;9.07;;
13122;SDS011;6627;50.920;12.050;2023-10-13T04:21:46;11.60;;;8.77;;
13122;SDS011;6627;50.920;12.050;2023-10-13T04:24:25;13.80;;;9.37;;
13122;SDS011;6627;50.920;12.050;2023-10-13T04:27:23;9.93;;;8.93;;
13122;SDS011;6627;50.920;12.050;2023-10-13T04:30:21;11.97;;;9.57;;
13122;SDS011;6627;50.920;12.050;2023-10-13T04:33:05;11.70;;;9.43;;
13122;SDS011;6627;50.920;12.050;2023-10-13T04:35:44;11.50;;;9.30;;
13122;SDS011;6627;50.920;12.050;2023-10-13T04:38:23;14.50;;;8.80;;
13122;SDS011;6627;50.920;12.050;2023-10-13T04:41:18;13.03;;;9.23;;
13122;SDS011;6627;50.920;12.050;2023-10-13T04:44:08;15.73;;;9.63;;
13122;SDS011;6627;50.920;12.050;2023-10-13T04:47:15;12.87;;;9.83;;
13122;SDS011;6627;50.920;12.050;2023-10-13T04:49:49;14.43;;;10.33;;
13122;SDS011;6627;50.920;12.050;2023-10-13T04:52:38;14.47;;;9.93;;
13122;SDS011;6627;50.920;12.050;2023-10-13T04:55:33;19.73;;;10.90;;
13122;SDS011;6627;50.920;12.050;2023-10-13T04:58:16;16.27;;;10.83;;
13122;SDS011;6627;50.920;12.050;2023-10-13T05:01:30;14.47;;;10.27;;
13122;SDS011;6627;50.920;12.050;2023-10-13T05:04:40;13.90;;;11.10;;
13122;SDS011;6627;50.920;12.050;2023-10-13T05:07:30;13.60;;;10.77;;
13122;SDS011;6627;50.920;12.050;2023-10-13T05:10:17;14.00;;;10.63;;
13122;SDS011;6627;50.920;12.050;2023-10-13T05:13:05;13.87;;;10.53;;
13122;SDS011;6627;50.920;12.050;2023-10-13T05:15:53;13.30;;;10.03;;
13122;SDS011;6627;50.920;12.050;2023-10-13T05:18:38;15.30;;;10.57;;
13122;SDS011;6627;50.920;12.050;2023-10-13T05:21:26;13.53;;;10.33;;
13122;SDS011;6627;50.920;12.050;2023-10-13T05:24:45;14.63;;;9.40;;
13122;SDS011;6627;50.920;12.050;2023-10-13T05:27:31;11.90;;;9.80;;
13122;SDS011;6627;50.920;12.050;2023-10-13T05:30:21;15.87;;;10.07;;
13122;SDS011;6627;50.920;12.050;2023-10-13T05:33:07;14.43;;;9.33;;
13122;SDS011;6627;50.920;12.050;2023-10-13T05:36:12;12.50;;;9.47;;
13122;SDS011;6627;50.920;12.050;2023-10-13T05:39:16;16.47;;;9.37;;
13122;SDS011;6627;50.920;12.050;2023-10-13T05:42:02;15.20;;;9.57;;
13122;SDS011;6627;50.920;12.050;2023-10-13T05:44:50;13.23;;;9.20;;
13122;SDS011;6627;50.920;12.050;2023-10-13T05:47:42;11.30;;;8.83;;
13122;SDS011;6627;50.920;12.050;2023-10-13T05:50:14;12.03;;;8.57;;
13122;SDS011;6627;50.920;12.050;2023-10-13T05:53:21;11.13;;;8.77;;
13122;SDS011;6627;50.920;12.050;2023-10-13T05:56:26;13.60;;;8.80;;
13122;SDS011;6627;50.920;12.050;2023-10-13T05:59:16;13.23;;;9.13;;
13122;SDS011;6627;50.920;12.050;2023-10-13T06:02:19;11.13;;;8.70;;
13122;SDS011;6627;50.920;12.050;2023-10-13T06:05:24;11.63;;;8.10;;
13122;SDS011;6627;50.920;12.050;2023-10-13T06:08:10;15.03;;;8.30;;
13122;SDS011;6627;50.920;12.050;2023-10-13T06:11:15;17.73;;;8.30;;
13122;SDS011;6627;50.920;12.050;2023-10-13T06:14:02;13.80;;;8.30;;
13122;SDS011;6627;50.920;12.050;2023-10-13T06:16:47;13.47;;;8.40;;
13122;SDS011;6627;50.920;12.050;2023-10-13T06:19:53;11.07;;;8.50;;
13122;SDS011;6627;50.920;12.050;2023-10-13T06:22:57;14.77;;;8.80;;
13122;SDS011;6627;50.920;12.050;2023-10-13T06:26:02;11.43;;;8.80;;
13122;SDS011;6627;50.920;12.050;2023-10-13T06:28:50;19.17;;;8.57;;
13122;SDS011;6627;50.920;12.050;2023-10-13T06:31:18;13.60;;;8.67;;
13122;SDS011;6627;50.920;12.050;2023-10-13T06:33:54;12.87;;;7.87;;
13122;SDS011;6627;50.920;12.050;2023-10-13T06:36:43;14.17;;;8.87;;
13122;SDS011;6627;50.920;12.050;2023-10-13T06:39:14;15.57;;;8.70;;
13122;SDS011;6627;50.920;12.050;2023-10-13T06:42:20;10.87;;;8.23;;
13122;SDS011;6627;50.920;12.050;2023-10-13T06:44:54;9.90;;;7.93;;
13122;SDS011;6627;50.920;12.050;2023-10-13T06:47:24;12.70;;;8.17;;
13122;SDS011;6627;50.920;12.050;2023-10-13T06:49:55;11.23;;;7.77;;
13122;SDS011;6627;50.920;12.050;2023-10-13T06:52:25;10.07;;;7.50;;
13122;SDS011;6627;50.920;12.050;2023-10-13T06:54:55;13.50;;;7.83;;
13122;SDS011;6627;50.920;12.050;2023-10-13T06:57:23;11.47;;;7.10;;
13122;SDS011;6627;50.920;12.050;2023-10-13T07:00:11;11.33;;;7.10;;
13122;SDS011;6627;50.920;12.050;2023-10-13T07:02:55;11.83;;;7.13;;
13122;SDS011;6627;50.920;12.050;2023-10-13T07:05:51;11.83;;;7.03;;
13122;SDS011;6627;50.920;12.050;2023-10-13T07:08:28;10.80;;;6.57;;
13122;SDS011;6627;50.920;12.050;2023-10-13T07:11:05;9.53;;;6.50;;
13122;SDS011;6627;50.920;12.050;2023-10-13T07:13:36;10.47;;;6.23;;
13122;SDS011;6627;50.920;12.050;2023-10-13T07:16:05;12.23;;;6.60;;
13122;SDS011;6627;50.920;12.050;2023-10-13T07:18:34;8.77;;;6.20;;
13122;SDS011;6627;50.920;12.050;2023-10-13T07:21:26;11.93;;;7.00;;
13122;SDS011;6627;50.920;12.050;2023-10-13T07:23:59;8.87;;;6.27;;
13122;SDS011;6627;50.920;12.050;2023-10-13T07:26:39;14.13;;;6.30;;
13122;SDS011;6627;50.920;12.050;2023-10-13T07:29:13;11.03;;;6.80;;
13122;SDS011;6627;50.920;12.050;2023-10-13T07:31:51;15.63;;;6.40;;
13122;SDS011;6627;50.920;12.050;2023-10-13T07:34:38;11.97;;;6.30;;
13122;SDS011;6627;50.920;12.050;2023-10-13T07:37:05;10.70;;;6.40;;
13122;SDS011;6627;50.920;12.050;2023-10-13T07:39:36;9.47;;;7.07;;
13122;SDS011;6627;50.920;12.050;2023-10-13T07:42:11;8.40;;;7.03;;
13122;SDS011;6627;50.920;12.050;2023-10-13T07:44:48;9.53;;;6.50;;
13122;SDS011;6627;50.920;12.050;2023-10-13T07:47:21;8.67;;;6.50;;
13122;SDS011;6627;50.920;12.050;2023-10-13T07:49:51;9.13;;;6.30;;
13122;SDS011;6627;50.920;12.050;2023-10-13T07:52:24;7.77;;;6.27;;
13122;SDS011;6627;50.920;12.050;2023-10-13T07:55:05;9.47;;;6.43;;
13122;SDS011;6627;50.920;12.050;2023-10-13T07:57:59;13.70;;;7.07;;
13122;SDS011;6627;50.920;12.050;2023-10-13T08:00:38;9.07;;;6.63;;
13122;SDS011;6627;50.920;12.050;2023-10-13T08:03:21;11.20;;;7.20;;
13122;SDS011;6627;50.920;12.050;2023-10-13T08:06:08;10.10;;;6.80;;
13122;SDS011;6627;50.920;12.050;2023-10-13T08:09:05;8.60;;;6.00;;
13122;SDS011;6627;50.920;12.050;2023-10-13T08:12:03;12.37;;;6.50;;
13122;SDS011;6627;50.920;12.050;2023-10-13T08:14:55;7.57;;;6.30;;
13122;SDS011;6627;50.920;12.050;2023-10-13T08:17:44;9.00;;;6.30;;
13122;SDS011;6627;50.920;12.050;2023-10-13T08:20:31;13.10;;;6.30;;
13122;SDS011;6627;50.920;12.050;2023-10-13T08:23:05;10.23;;;5.80;;
13122;SDS011;6627;50.920;12.050;2023-10-13T08:25:39;8.53;;;5.53;;
13122;SDS011;6627;50.920;12.050;2023-10-13T08:28:25;12.20;;;6.13;;
13122;SDS011;6627;50.920;12.050;2023-10-13T08:31:10;8.80;;;6.07;;
13122;SDS011;6627;50.920;12.050;2023-10-13T08:33:49;8.87;;;5.80;;
13122;SDS011;6627;50.920;12.050;2023-10-13T08:36:20;11.57;;;5.60;;
13122;SDS011;6627;50.920;12.050;2023-10-13T08:38:56;10.20;;;5.43;;
13122;SDS011;6627;50.920;12.050;2023-10-13T08:41:42;13.63;;;5.57;;
13122;SDS011;6627;50.920;12.050;2023-10-13T08:44:45;9.53;;;5.13;;
13122;SDS011;6627;50.920;12.050;2023-10-13T08:47:20;11.27;;;6.10;;
13122;SDS011;6627;50.920;12.050;2023-10-13T08:49:53;10.77;;;5.40;;
13122;SDS011;6627;50.920;12.050;2023-10-13T08:52:55;9.20;;;5.70;;
13122;SDS011;6627;50.920;12.050;2023-10-13T08:55:42;12.67;;;5.30;;
13122;SDS011;6627;50.920;12.050;2023-10-13T08:58:27;8.83;;;5.73;;
13122;SDS011;6627;50.920;12.050;2023-10-13T09:01:19;7.90;;;5.10;;
13122;SDS011;6627;50.920;12.050;2023-10-13T09:04:25;9.47;;;5.50;;
13122;SDS011;6627;50.920;12.050;2023-10-13T09:07:09;9.33;;;5.40;;
13122;SDS011;6627;50.920;12.050;2023-10-13T09:10:00;10.20;;;5.20;;
13122;SDS011;6627;50.920;12.050;2023-10-13T09:13:00;13.17;;;6.10;;
13122;SDS011;6627;50.920;12.050;2023-10-13T09:15:30;12.70;;;5.00;;
13122;SDS011;6627;50.920;12.050;2023-10-13T09:18:25;9.00;;;5.27;;
13122;SDS011;6627;50.920;12.050;2023-10-13T09:21:08;7.97;;;5.60;;
13122;SDS011;6627;50.920;12.050;2023-10-13T09:23:53;10.17;;;5.90;;
13122;SDS011;6627;50.920;12.050;2023-10-13T09:26:41;11.40;;;4.70;;
13122;SDS011;6627;50.920;12.050;2023-10-13T09:29:27;14.53;;;5.17;;
13122;SDS011;6627;50.920;12.050;2023-10-13T09:31:59;8.30;;;4.90;;
13122;SDS011;6627;50.920;12.050;2023-10-13T09:34:30;11.80;;;5.00;;
13122;SDS011;6627;50.920;12.050;2023-10-13T09:37:15;11.53;;;5.30;;
13122;SDS011;6627;50.920;12.050;2023-10-13T09:39:46;11.67;;;5.33;;
13122;SDS011;6627;50.920;12.050;2023-10-13T09:42:18;12.47;;;5.20;;
13122;SDS011;6627;50.920;12.050;2023-10-13T09:45:04;7.97;;;4.60;;
13122;SDS011;6627;50.920;12.050;2023-10-13T09:47:38;11.03;;;4.53;;
13122;SDS011;6627;50.920;12.050;2023-10-13T09:50:08;11.07;;;4.47;;
13122;SDS011;6627;50.920;12.050;2023-10-13T09:52:50;7.20;;;4.10;;
13122;SDS011;6627;50.920;12.050;2023-10-13T09:55:25;9.20;;;4.27;;
13122;SDS011;6627;50.920;12.050;2023-10-13T09:57:58;7.83;;;4.47;;
13122;SDS011;6627;50.920;12.050;2023-10-13T10:00:56;11.30;;;4.80;;
13122;SDS011;6627;50.920;12.050;2023-10-13T10:03:52;10.43;;;4.10;;
13122;SDS011;6627;50.920;12.050;2023-10-13T10:06:35;11.77;;;4.50;;
13122;SDS011;6627;50.920;12.050;2023-10-13T10:09:06;11.00;;;4.80;;
13122;SDS011;6627;50.920;12.050;2023-10-13T10:12:08;8.17;;;4.03;;
13122;SDS011;6627;50.920;12.050;2023-10-13T10:15:16;7.57;;;4.30;;
13122;SDS011;6627;50.920;12.050;2023-10-13T10:17:56;9.90;;;4.40;;
13122;SDS011;6627;50.920;12.050;2023-10-13T10:20:28;11.37;;;4.50;;
13122;SDS011;6627;50.920;12.050;2023-10-13T10:23:34;9.50;;;4.67;;
13122;SDS011;6627;50.920;12.050;2023-10-13T10:26:10;13.70;;;4.40;;
13122;SDS011;6627;50.920;12.050;2023-10-13T10:28:46;9.50;;;4.50;;
13122;SDS011;6627;50.920;12.050;2023-10-13T10:31:15;10.83;;;4.27;;
13122;SDS011;6627;50.920;12.050;2023-10-13T10:33:47;15.33;;;4.33;;
13122;SDS011;6627;50.920;12.050;2023-10-13T10:36:28;12.03;;;4.37;;
13122;SDS011;6627;50.920;12.050;2023-10-13T10:38:59;12.47;;;4.30;;
13122;SDS011;6627;50.920;12.050;2023-10-13T10:41:30;13.27;;;5.17;;
13122;SDS011;6627;50.920;12.050;2023-10-13T10:44:09;9.03;;;4.57;;
13122;SDS011;6627;50.920;12.050;2023-10-13T10:46:42;14.30;;;5.10;;
13122;SDS011;6627;50.920;12.050;2023-10-13T10:49:36;10.80;;;4.90;;
13122;SDS011;6627;50.920;12.050;2023-10-13T10:52:26;9.27;;;4.23;;
13122;SDS011;6627;50.920;12.050;2023-10-13T10:55:06;9.23;;;4.40;;
13122;SDS011;6627;50.920;12.050;2023-10-13T10:57:41;9.03;;;4.60;;
13122;SDS011;6627;50.920;12.050;2023-10-13T11:00:17;9.77;;;4.70;;
13122;SDS011;6627;50.920;12.050;2023-10-13T11:02:54;11.10;;;4.60;;
13122;SDS011;6627;50.920;12.050;2023-10-13T11:05:22;10.37;;;4.07;;
13122;SDS011;6627;50.920;12.050;2023-10-13T11:07:57;13.30;;;4.50;;
13122;SDS011;6627;50.920;12.050;2023-10-13T11:10:47;11.20;;;4.63;;
13122;SDS011;6627;50.920;12.050;2023-10-13T11:13:22;11.37;;;4.37;;
13122;SDS011;6627;50.920;12.050;2023-10-13T11:16:09;10.97;;;5.13;;
13122;SDS011;6627;50.920;12.050;2023-10-13T11:18:36;7.93;;;4.37;;
13122;SDS011;6627;50.920;12.050;2023-10-13T11:21:14;9.70;;;4.57;;
13122;SDS011;6627;50.920;12.050;2023-10-13T11:23:43;10.07;;;4.20;;
13122;SDS011;6627;50.920;12.050;2023-10-13T11:26:34;11.10;;;4.47;;
13122;SDS011;6627;50.920;12.050;2023-10-13T11:29:09;11.67;;;4.57;;
13122;SDS011;6627;50.920;12.050;2023-10-13T11:31:37;9.37;;;4.33;;
13122;SDS011;6627;50.920;12.050;2023-10-13T11:34:24;11.20;;;4.50;;
13122;SDS011;6627;50.920;12.050;2023-10-13T11:37:02;9.20;;;4.47;;
13122;SDS011;6627;50.920;12.050;2023-10-13T11:39:50;11.33;;;4.50;;
13122;SDS011;6627;50.920;12.050;2023-10-13T11:42:20;12.10;;;4.57;;
13122;SDS011;6627;50.920;12.050;2023-10-13T11:44:49;10.70;;;4.40;;
13122;SDS011;6627;50.920;12.050;2023-10-13T11:47:54;10.57;;;4.60;;
13122;SDS011;6627;50.920;12.050;2023-10-13T11:50:26;10.07;;;4.70;;
13122;SDS011;6627;50.920;12.050;2023-10-13T11:53:02;9.93;;;4.57;;
13122;SDS011;6627;50.920;12.050;2023-10-13T11:55:52;7.53;;;4.10;;
13122;SDS011;6627;50.920;12.050;2023-10-13T11:58:22;7.37;;;4.33;;
13122;SDS011;6627;50.920;12.050;2023-10-13T12:00:50;9.33;;;4.67;;
13122;SDS011;6627;50.920;12.050;2023-10-13T12:03:24;9.43;;;4.40;;
13122;SDS011;6627;50.920;12.050;2023-10-13T12:06:09;10.03;;;4.50;;
13122;SDS011;6627;50.920;12.050;2023-10-13T12:09:04;11.37;;;4.77;;
13122;SDS011;6627;50.920;12.050;2023-10-13T12:11:44;11.27;;;4.50;;
13122;SDS011;6627;50.920;12.050;2023-10-13T12:14:16;10.47;;;4.70;;
13122;SDS011;6627;50.920;12.050;2023-10-13T12:16:52;8.97;;;4.43;;
13122;SDS011;6627;50.920;12.050;2023-10-13T12:19:23;6.13;;;4.50;;
13122;SDS011;6627;50.920;12.050;2023-10-13T12:21:55;10.10;;;4.63;;
13122;SDS011;6627;50.920;12.050;2023-10-13T12:24:32;7.33;;;4.17;;
13122;SDS011;6627;50.920;12.050;2023-10-13T12:27:20;9.50;;;4.70;;
13122;SDS011;6627;50.920;12.050;2023-10-13T12:29:55;7.43;;;4.33;;
13122;SDS011;6627;50.920;12.050;2023-10-13T12:32:28;9.17;;;4.57;;
13122;SDS011;6627;50.920;12.050;2023-10-13T12:35:16;6.97;;;3.90;;
13122;SDS011;6627;50.920;12.050;2023-10-13T12:38:12;8.47;;;4.30;;
13122;SDS011;6627;50.920;12.050;2023-10-13T12:41:21;11.83;;;4.63;;
13122;SDS011;6627;50.920;12.050;2023-10-13T12:44:07;6.23;;;4.17;;
13122;SDS011;6627;50.920;12.050;2023-10-13T12:46:54;9.33;;;4.23;;
13122;SDS011;6627;50.920;12.050;2023-10-13T12:49:39;6.40;;;4.20;;
13122;SDS011;6627;50.920;12.050;2023-10-13T12:52:18;7.20;;;4.73;;
13122;SDS011;6627;50.920;12.050;2023-10-13T12:55:05;11.47;;;4.67;;
13122;SDS011;6627;50.920;12.050;2023-10-13T12:57:35;9.57;;;4.73;;
13122;SDS011;6627;50.920;12.050;2023-10-13T13:00:10;12.10;;;4.20;;
13122;SDS011;6627;50.920;12.050;2023-10-13T13:03:12;8.10;;;3.90;;
13122;SDS011;6627;50.920;12.050;2023-10-13T13:05:59;12.17;;;4.70;;
13122;SDS011;6627;50.920;12.050;2023-10-13T13:08:52;9.87;;;4.53;;
13122;SDS011;6627;50.920;12.050;2023-10-13T13:11:39;9.53;;;4.53;;
13122;SDS011;6627;50.920;12.050;2023-10-13T13:14:07;10.23;;;4.50;;
13122;SDS011;6627;50.920;12.050;2023-10-13T13:16:55;7.03;;;4.20;;
13122;SDS011;6627;50.920;12.050;2023-10-13T13:19:31;14.73;;;4.60;;
13122;SDS011;6627;50.920;12.050;2023-10-13T13:22:08;7.90;;;4.20;;
13122;SDS011;6627;50.920;12.050;2023-10-13T13:24:38;10.57;;;4.43;;
13122;SDS011;6627;50.920;12.050;2023-10-13T13:27:09;6.97;;;4.33;;
13122;SDS011;6627;50.920;12.050;2023-10-13T13:29:42;8.30;;;5.10;;
13122;SDS011;6627;50.920;12.050;2023-10-13T13:32:18;9.80;;;4.47;;
13122;SDS011;6627;50.920;12.050;2023-10-13T13:34:55;12.13;;;4.60;;
13122;SDS011;6627;50.920;12.050;2023-10-13T13:37:49;8.17;;;4.63;;
13122;SDS011;6627;50.920;12.050;2023-10-13T13:40:20;9.27;;;4.70;;
13122;SDS011;6627;50.920;12.050;2023-10-13T13:42:47;7.73;;;4.50;;
13122;SDS011;6627;50.920;12.050;2023-10-13T13:45:15;6.80;;;4.70;;
13122;SDS011;6627;50.920;12.050;2023-10-13T13:47:53;6.23;;;4.43;;
13122;SDS011;6627;50.920;12.050;2023-10-13T13:50:25;8.30;;;4.20;;
13122;SDS011;6627;50.920;12.050;2023-10-13T13:53:03;8.53;;;4.30;;
13122;SDS011;6627;50.920;12.050;2023-10-13T13:55:37;7.53;;;4.47;;
13122;SDS011;6627;50.920;12.050;2023-10-13T13:58:07;8.00;;;4.83;;
13122;SDS011;6627;50.920;12.050;2023-10-13T14:00:36;5.87;;;4.10;;
13122;SDS011;6627;50.920;12.050;2023-10-13T14:03:05;7.00;;;4.30;;
13122;SDS011;6627;50.920;12.050;2023-10-13T14:05:59;12.03;;;4.30;;
13122;SDS011;6627;50.920;12.050;2023-10-13T14:08:44;8.80;;;4.50;;
13122;SDS011;6627;50.920;12.050;2023-10-13T14:11:18;11.67;;;4.90;;
13122;SDS011;6627;50.920;12.050;2023-10-13T14:14:10;7.93;;;4.00;;
13122;SDS011;6627;50.920;12.050;2023-10-13T14:16:41;8.60;;;4.20;;
13122;SDS011;6627;50.920;12.050;2023-10-13T14:19:11;12.77;;;4.40;;
13122;SDS011;6627;50.920;12.050;2023-10-13T14:21:56;8.47;;;4.10;;
13122;SDS011;6627;50.920;12.050;2023-10-13T14:24:44;6.60;;;3.83;;
13122;SDS011;6627;50.920;12.050;2023-10-13T14:27:29;6.47;;;3.90;;
13122;SDS011;6627;50.920;12.050;2023-10-13T14:29:58;8.53;;;4.00;;
13122;SDS011;6627;50.920;12.050;2023-10-13T14:32:29;7.70;;;3.97;;
13122;SDS011;6627;50.920;12.050;2023-10-13T14:35:16;9.27;;;4.27;;
13122;SDS011;6627;50.920;12.050;2023-10-13T14:37:45;10.33;;;4.60;;
13122;SDS011;6627;50.920;12.050;2023-10-13T14:40:32;8.03;;;4.23;;
13122;SDS011;6627;50.920;12.050;2023-10-13T14:43:19;6.43;;;4.00;;
13122;SDS011;6627;50.920;12.050;2023-10-13T14:45:51;6.13;;;4.10;;
13122;SDS011;6627;50.920;12.050;2023-10-13T14:48:18;8.87;;;4.03;;
13122;SDS011;6627;50.920;12.050;2023-10-13T14:50:59;7.80;;;4.10;;
13122;SDS011;6627;50.920;12.050;2023-10-13T14:53:39;10.37;;;4.33;;
13122;SDS011;6627;50.920;12.050;2023-10-13T14:56:26;10.63;;;5.10;;
13122;SDS011;6627;50.920;12.050;2023-10-13T14:59:13;7.83;;;3.93;;
13122;SDS011;6627;50.920;12.050;2023-10-13T15:01:43;8.40;;;4.17;;
13122;SDS011;6627;50.920;12.050;2023-10-13T15:04:12;8.47;;;3.93;;
13122;SDS011;6627;50.920;12.050;2023-10-13T15:06:42;10.67;;;4.00;;
13122;SDS011;6627;50.920;12.050;2023-10-13T15:09:30;8.07;;;3.97;;
13122;SDS011;6627;50.920;12.050;2023-10-13T15:11:58;6.77;;;3.80;;
13122;SDS011;6627;50.920;12.050;2023-10-13T15:14:28;6.43;;;3.93;;
13122;SDS011;6627;50.920;12.050;2023-10-13T15:16:56;7.47;;;4.30;;
13122;SDS011;6627;50.920;12.050;2023-10-13T15:19:41;7.37;;;4.00;;
13122;SDS011;6627;50.920;12.050;2023-10-13T15:22:13;5.97;;;3.80;;
13122;SDS011;6627;50.920;12.050;2023-10-13T15:24:49;8.43;;;4.27;;
13122;SDS011;6627;50.920;12.050;2023-10-13T15:27:34;8.83;;;4.00;;
13122;SDS011;6627;50.920;12.050;2023-10-13T15:30:07;6.83;;;4.07;;
13122;SDS011;6627;50.920;12.050;2023-10-13T15:33:00;11.53;;;4.50;;
13122;SDS011;6627;50.920;12.050;2023-10-13T15:35:46;8.93;;;4.00;;
13122;SDS011;6627;50.920;12.050;2023-10-13T15:38:15;6.87;;;3.97;;
13122;SDS011;6627;50.920;12.050;2023-10-13T15:40:49;6.07;;;4.07;;
13122;SDS011;6627;50.920;12.050;2023-10-13T15:43:20;7.13;;;3.63;;
13122;SDS011;6627;50.920;12.050;2023-10-13T15:45:47;5.73;;;4.37;;
13122;SDS011;6627;50.920;12.050;2023-10-13T15:48:15;5.63;;;3.83;;
13122;SDS011;6627;50.920;12.050;2023-10-13T15:51:02;9.83;;;4.23;;
13122;SDS011;6627;50.920;12.050;2023-10-13T15:53:29;9.57;;;3.83;;
13122;SDS011;6627;50.920;12.050;2023-10-13T15:55:58;6.83;;;4.30;;
13122;SDS011;6627;50.920;12.050;2023-10-13T15:58:51;6.77;;;4.30;;